VOI731 KIAH-MMMX
Flight info
| Callsign | VOI731 |
|---|---|
| Flight time | 2h 9m |
| Altitude | 36000 |
| Route | RITAA7 WWREN DCT BRO DCT MAM UJ59 MAPIL/N0467F350 UJ59 TAM/N0464F360 UT100 ENAGA ENAGA3A |
| Aircraft | A320/M-SDFGIRWZ/SB1 |
Departure
| Time | 2026-05-08 01:56 |
|---|---|
| Airport | George Bush Intercontinental Airport (KIAH) |
Arrival
| Time | 2026-05-08 04:06 |
|---|---|
| Airport | Mexico City Benito Juárez International Airport (MMMX) |
| Time | Latitude | Longitude | Altitude | Speed | Heading |
|---|---|---|---|---|---|
| 2026-05-08 01:20 | 29.98829 | -95.33184 | 107 ft | 0 kts | 180° |
| 2026-05-08 01:43 | 29.98840 | -95.33184 | 106 ft | 3 kts | 183° |
| 2026-05-08 01:43 | 29.98862 | -95.33185 | 106 ft | 2 kts | 164° |
| 2026-05-08 01:44 | 29.98881 | -95.33192 | 105 ft | 3 kts | 152° |
| 2026-05-08 01:44 | 29.98899 | -95.33207 | 105 ft | 3 kts | 132° |
| 2026-05-08 01:44 | 29.98912 | -95.33228 | 105 ft | 3 kts | 111° |
| 2026-05-08 01:44 | 29.98918 | -95.33252 | 105 ft | 3 kts | 94° |
| 2026-05-08 01:45 | 29.98918 | -95.33276 | 106 ft | 3 kts | 90° |
| 2026-05-08 01:45 | 29.98918 | -95.33302 | 107 ft | 3 kts | 90° |
| 2026-05-08 01:45 | 29.98918 | -95.33328 | 107 ft | 3 kts | 90° |
| 2026-05-08 01:45 | 29.98918 | -95.33346 | 107 ft | 1 kts | 90° |
| 2026-05-08 01:49 | 29.98918 | -95.33343 | 107 ft | 1 kts | 90° |
| 2026-05-08 01:49 | 29.98918 | -95.33330 | 107 ft | 4 kts | 90° |
| 2026-05-08 01:50 | 29.98919 | -95.33263 | 106 ft | 12 kts | 89° |
| 2026-05-08 01:50 | 29.98920 | -95.33158 | 107 ft | 14 kts | 90° |
| 2026-05-08 01:50 | 29.98936 | -95.33042 | 106 ft | 15 kts | 47° |
| 2026-05-08 01:50 | 29.99042 | -95.33026 | 107 ft | 17 kts | 358° |
| 2026-05-08 01:51 | 29.99091 | -95.33129 | 107 ft | 17 kts | 269° |
| 2026-05-08 01:51 | 29.99091 | -95.33278 | 107 ft | 19 kts | 270° |
| 2026-05-08 01:51 | 29.99091 | -95.33440 | 107 ft | 21 kts | 270° |
| 2026-05-08 01:51 | 29.99091 | -95.33616 | 107 ft | 23 kts | 269° |
| 2026-05-08 01:52 | 29.99089 | -95.33792 | 107 ft | 21 kts | 270° |
| 2026-05-08 01:52 | 29.99088 | -95.33971 | 107 ft | 23 kts | 270° |
| 2026-05-08 01:52 | 29.99087 | -95.34149 | 107 ft | 22 kts | 268° |
| 2026-05-08 01:52 | 29.99085 | -95.34337 | 107 ft | 24 kts | 270° |
| 2026-05-08 01:53 | 29.99084 | -95.34538 | 107 ft | 26 kts | 269° |
| 2026-05-08 01:53 | 29.99085 | -95.34751 | 107 ft | 26 kts | 270° |
| 2026-05-08 01:53 | 29.99089 | -95.34954 | 107 ft | 25 kts | 273° |
| 2026-05-08 01:53 | 29.99091 | -95.35144 | 107 ft | 21 kts | 269° |
| 2026-05-08 01:54 | 29.99091 | -95.35313 | 107 ft | 21 kts | 270° |
| 2026-05-08 01:54 | 29.99083 | -95.35456 | 106 ft | 15 kts | 243° |
| 2026-05-08 01:54 | 29.98996 | -95.35483 | 107 ft | 14 kts | 178° |
| 2026-05-08 01:54 | 29.98906 | -95.35503 | 107 ft | 14 kts | 224° |
| 2026-05-08 01:55 | 29.98860 | -95.35607 | 107 ft | 15 kts | 241° |
| 2026-05-08 01:55 | 29.98825 | -95.35679 | 106 ft | 15 kts | 241° |
| 2026-05-08 01:55 | 29.98767 | -95.35761 | 109 ft | 13 kts | 188° |
| 2026-05-08 01:55 | 29.98654 | -95.35702 | 108 ft | 30 kts | 152° |
| 2026-05-08 01:56 | 29.98039 | -95.35327 | 108 ft | 115 kts | 151° |
| 2026-05-08 01:56 | 29.97183 | -95.34803 | 105 ft | 161 kts | 152° |
| 2026-05-08 01:56 | 29.96469 | -95.34359 | 210 ft | 179 kts | 151° |
| 2026-05-08 01:56 | 29.95498 | -95.33499 | 811 ft | 178 kts | 132° |
| 2026-05-08 01:57 | 29.94463 | -95.32063 | 1713 ft | 174 kts | 126° |
| 2026-05-08 01:57 | 29.93952 | -95.31294 | 1975 ft | 185 kts | 125° |
| 2026-05-08 01:57 | 29.93129 | -95.30048 | 2206 ft | 206 kts | 126° |
| 2026-05-08 01:57 | 29.92192 | -95.28663 | 2482 ft | 232 kts | 127° |
| 2026-05-08 01:58 | 29.91139 | -95.27142 | 2997 ft | 250 kts | 128° |
| 2026-05-08 01:58 | 29.90026 | -95.25568 | 3704 ft | 259 kts | 129° |
| 2026-05-08 01:58 | 29.88865 | -95.23943 | 3930 ft | 264 kts | 129° |
| 2026-05-08 01:58 | 29.87750 | -95.22262 | 4582 ft | 270 kts | 127° |
| 2026-05-08 01:59 | 29.86634 | -95.20469 | 5374 ft | 272 kts | 126° |
| 2026-05-08 01:59 | 29.85559 | -95.18708 | 6176 ft | 275 kts | 126° |
| 2026-05-08 01:59 | 29.84456 | -95.16904 | 6953 ft | 276 kts | 126° |
| 2026-05-08 01:59 | 29.83336 | -95.15080 | 7690 ft | 280 kts | 126° |
| 2026-05-08 02:00 | 29.82112 | -95.13311 | 8366 ft | 285 kts | 138° |
| 2026-05-08 02:00 | 29.80552 | -95.11878 | 9063 ft | 289 kts | 144° |
| 2026-05-08 02:00 | 29.78944 | -95.10465 | 9777 ft | 293 kts | 144° |
| 2026-05-08 02:00 | 29.77197 | -95.09256 | 10396 ft | 295 kts | 161° |
| 2026-05-08 02:01 | 29.75188 | -95.08833 | 11011 ft | 295 kts | 184° |
| 2026-05-08 02:01 | 29.73187 | -95.09282 | 11650 ft | 294 kts | 205° |
| 2026-05-08 02:01 | 29.71455 | -95.10510 | 12191 ft | 299 kts | 220° |
| 2026-05-08 02:01 | 29.69782 | -95.12070 | 12316 ft | 320 kts | 221° |
| 2026-05-08 02:02 | 29.68011 | -95.13752 | 12449 ft | 339 kts | 221° |
| 2026-05-08 02:02 | 29.66150 | -95.15532 | 12596 ft | 355 kts | 222° |
| 2026-05-08 02:02 | 29.64283 | -95.17434 | 13045 ft | 361 kts | 224° |
| 2026-05-08 02:02 | 29.62448 | -95.19425 | 13634 ft | 363 kts | 226° |
| 2026-05-08 02:03 | 29.60637 | -95.21447 | 14205 ft | 363 kts | 226° |
| 2026-05-08 02:03 | 29.58692 | -95.23317 | 14759 ft | 367 kts | 217° |
| 2026-05-08 02:03 | 29.56454 | -95.24754 | 15305 ft | 371 kts | 210° |
| 2026-05-08 02:03 | 29.54142 | -95.26074 | 15871 ft | 371 kts | 210° |
| 2026-05-08 02:04 | 29.51817 | -95.27375 | 16448 ft | 372 kts | 210° |
| 2026-05-08 02:04 | 29.49480 | -95.28673 | 17008 ft | 373 kts | 210° |
| 2026-05-08 02:04 | 29.47142 | -95.29971 | 17562 ft | 374 kts | 210° |
| 2026-05-08 02:04 | 29.44829 | -95.31260 | 18125 ft | 375 kts | 211° |
| 2026-05-08 02:05 | 29.42479 | -95.32574 | 18617 ft | 376 kts | 211° |
| 2026-05-08 02:05 | 29.40125 | -95.33895 | 19034 ft | 379 kts | 211° |
| 2026-05-08 02:05 | 29.37739 | -95.35237 | 19474 ft | 382 kts | 211° |
| 2026-05-08 02:05 | 29.35344 | -95.36581 | 19906 ft | 385 kts | 211° |
| 2026-05-08 02:06 | 29.32931 | -95.37931 | 20338 ft | 387 kts | 211° |
| 2026-05-08 02:06 | 29.30506 | -95.39285 | 20744 ft | 390 kts | 211° |
| 2026-05-08 02:06 | 29.28054 | -95.40653 | 21156 ft | 392 kts | 211° |
| 2026-05-08 02:06 | 29.25595 | -95.42027 | 21561 ft | 395 kts | 211° |
| 2026-05-08 02:07 | 29.23119 | -95.43411 | 21952 ft | 397 kts | 211° |
| 2026-05-08 02:07 | 29.20625 | -95.44808 | 22336 ft | 400 kts | 211° |
| 2026-05-08 02:07 | 29.18120 | -95.46208 | 22715 ft | 402 kts | 211° |
| 2026-05-08 02:07 | 29.15594 | -95.47616 | 23085 ft | 405 kts | 211° |
| 2026-05-08 02:08 | 29.13058 | -95.49027 | 23422 ft | 407 kts | 210° |
| 2026-05-08 02:08 | 29.10511 | -95.50443 | 23813 ft | 407 kts | 210° |
| 2026-05-08 02:08 | 29.07963 | -95.51861 | 24156 ft | 408 kts | 210° |
| 2026-05-08 02:08 | 29.05445 | -95.53262 | 24477 ft | 409 kts | 210° |
| 2026-05-08 02:09 | 29.02880 | -95.54687 | 24799 ft | 410 kts | 210° |
| 2026-05-08 02:09 | 29.00306 | -95.56114 | 25117 ft | 412 kts | 210° |
| 2026-05-08 02:09 | 28.97722 | -95.57545 | 25433 ft | 413 kts | 211° |
| 2026-05-08 02:09 | 28.95133 | -95.58981 | 25757 ft | 415 kts | 211° |
| 2026-05-08 02:10 | 28.92529 | -95.60428 | 26073 ft | 417 kts | 211° |
| 2026-05-08 02:10 | 28.89921 | -95.61882 | 26381 ft | 418 kts | 211° |
| 2026-05-08 02:10 | 28.87343 | -95.63402 | 26763 ft | 416 kts | 213° |
| 2026-05-08 02:10 | 28.84812 | -95.64979 | 27219 ft | 413 kts | 214° |
| 2026-05-08 02:11 | 28.82313 | -95.66586 | 27647 ft | 412 kts | 214° |
| 2026-05-08 02:11 | 28.79824 | -95.68202 | 28061 ft | 411 kts | 214° |
| 2026-05-08 02:11 | 28.77339 | -95.69807 | 28494 ft | 411 kts | 214° |
| 2026-05-08 02:11 | 28.74849 | -95.71395 | 28958 ft | 410 kts | 214° |
| 2026-05-08 02:12 | 28.72363 | -95.72966 | 29445 ft | 407 kts | 214° |
| 2026-05-08 02:12 | 28.69886 | -95.74516 | 29940 ft | 406 kts | 214° |
| 2026-05-08 02:12 | 28.67416 | -95.76056 | 30368 ft | 404 kts | 214° |
| 2026-05-08 02:12 | 28.64955 | -95.77586 | 30777 ft | 402 kts | 214° |
| 2026-05-08 02:13 | 28.62539 | -95.79091 | 31183 ft | 400 kts | 214° |
| 2026-05-08 02:13 | 28.60102 | -95.80612 | 31608 ft | 398 kts | 214° |
| 2026-05-08 02:13 | 28.57680 | -95.82127 | 32034 ft | 397 kts | 214° |
| 2026-05-08 02:13 | 28.55266 | -95.83639 | 32464 ft | 395 kts | 214° |
| 2026-05-08 02:14 | 28.52870 | -95.85138 | 32870 ft | 393 kts | 214° |
| 2026-05-08 02:14 | 28.50473 | -95.86634 | 33249 ft | 393 kts | 214° |
| 2026-05-08 02:14 | 28.48074 | -95.88133 | 33647 ft | 392 kts | 214° |
| 2026-05-08 02:14 | 28.45689 | -95.89627 | 34052 ft | 391 kts | 214° |
| 2026-05-08 02:15 | 28.43312 | -95.91115 | 34396 ft | 389 kts | 214° |
| 2026-05-08 02:15 | 28.40946 | -95.92595 | 34734 ft | 388 kts | 214° |
| 2026-05-08 02:15 | 28.38584 | -95.94069 | 35058 ft | 387 kts | 214° |
| 2026-05-08 02:15 | 28.36225 | -95.95538 | 35374 ft | 386 kts | 214° |
| 2026-05-08 02:16 | 28.33879 | -95.96996 | 35671 ft | 385 kts | 214° |
| 2026-05-08 02:16 | 28.31532 | -95.98452 | 35923 ft | 385 kts | 214° |
| 2026-05-08 02:16 | 28.26797 | -96.01399 | 35998 ft | 394 kts | 214° |
| 2026-05-08 02:17 | 28.21960 | -96.04409 | 35988 ft | 399 kts | 214° |
| 2026-05-08 02:17 | 28.17106 | -96.07415 | 35997 ft | 401 kts | 214° |
| 2026-05-08 02:18 | 28.12208 | -96.10445 | 35999 ft | 401 kts | 214° |
| 2026-05-08 02:18 | 28.07278 | -96.13387 | 35998 ft | 401 kts | 213° |
| 2026-05-08 02:19 | 28.02323 | -96.16280 | 35994 ft | 401 kts | 213° |
| 2026-05-08 02:19 | 27.97365 | -96.19185 | 35997 ft | 401 kts | 213° |
| 2026-05-08 02:20 | 27.92419 | -96.22102 | 35985 ft | 401 kts | 213° |
| 2026-05-08 02:20 | 27.87471 | -96.25019 | 35976 ft | 402 kts | 213° |
| 2026-05-08 02:21 | 27.82504 | -96.27938 | 35981 ft | 403 kts | 213° |
| 2026-05-08 02:21 | 27.77528 | -96.30858 | 35987 ft | 403 kts | 213° |
| 2026-05-08 02:22 | 27.72549 | -96.33779 | 35995 ft | 404 kts | 213° |
| 2026-05-08 02:22 | 27.67564 | -96.36699 | 35991 ft | 404 kts | 213° |
| 2026-05-08 02:23 | 27.62601 | -96.39610 | 36002 ft | 404 kts | 213° |
| 2026-05-08 02:23 | 27.57609 | -96.42531 | 36005 ft | 404 kts | 213° |
| 2026-05-08 02:24 | 27.52622 | -96.45442 | 36003 ft | 404 kts | 213° |
| 2026-05-08 02:24 | 27.47629 | -96.48356 | 36008 ft | 404 kts | 213° |
| 2026-05-08 02:25 | 27.42638 | -96.51265 | 36008 ft | 403 kts | 213° |
| 2026-05-08 02:25 | 27.37661 | -96.54166 | 36007 ft | 402 kts | 213° |
| 2026-05-08 02:26 | 27.32690 | -96.57062 | 36007 ft | 402 kts | 213° |
| 2026-05-08 02:26 | 27.27718 | -96.59954 | 35979 ft | 403 kts | 213° |
| 2026-05-08 02:27 | 27.22732 | -96.62845 | 35982 ft | 404 kts | 213° |
| 2026-05-08 02:27 | 27.17738 | -96.65743 | 35982 ft | 404 kts | 213° |
| 2026-05-08 02:28 | 27.12734 | -96.68642 | 35983 ft | 404 kts | 213° |
| 2026-05-08 02:28 | 27.07746 | -96.71537 | 35986 ft | 404 kts | 213° |
| 2026-05-08 02:29 | 27.02738 | -96.74440 | 35990 ft | 404 kts | 213° |
| 2026-05-08 02:29 | 26.97769 | -96.77310 | 35971 ft | 405 kts | 213° |
| 2026-05-08 02:30 | 26.92752 | -96.80200 | 35970 ft | 406 kts | 213° |
| 2026-05-08 02:30 | 26.87731 | -96.83096 | 35979 ft | 406 kts | 213° |
| 2026-05-08 02:31 | 26.82702 | -96.85997 | 35989 ft | 407 kts | 212° |
| 2026-05-08 02:31 | 26.77667 | -96.88893 | 35992 ft | 407 kts | 212° |
| 2026-05-08 02:32 | 26.72626 | -96.91788 | 35994 ft | 407 kts | 212° |
| 2026-05-08 02:32 | 26.67593 | -96.94680 | 35976 ft | 407 kts | 212° |
| 2026-05-08 02:33 | 26.62560 | -96.97571 | 35978 ft | 407 kts | 212° |
| 2026-05-08 02:33 | 26.57525 | -97.00457 | 35964 ft | 407 kts | 212° |
| 2026-05-08 02:34 | 26.52487 | -97.03345 | 35983 ft | 407 kts | 212° |
| 2026-05-08 02:34 | 26.47449 | -97.06228 | 35975 ft | 407 kts | 212° |
| 2026-05-08 02:35 | 26.42402 | -97.09103 | 35969 ft | 407 kts | 212° |
| 2026-05-08 02:35 | 26.37352 | -97.11982 | 35953 ft | 408 kts | 212° |
| 2026-05-08 02:36 | 26.32262 | -97.14885 | 35947 ft | 409 kts | 212° |
| 2026-05-08 02:36 | 26.27195 | -97.17779 | 35939 ft | 410 kts | 212° |
| 2026-05-08 02:37 | 26.22115 | -97.20673 | 35941 ft | 410 kts | 212° |
| 2026-05-08 02:37 | 26.17032 | -97.23566 | 35947 ft | 410 kts | 212° |
| 2026-05-08 02:38 | 26.11946 | -97.26455 | 35955 ft | 411 kts | 212° |
| 2026-05-08 02:38 | 26.06853 | -97.29340 | 35943 ft | 411 kts | 212° |
| 2026-05-08 02:39 | 26.01749 | -97.32230 | 35942 ft | 412 kts | 212° |
| 2026-05-08 02:39 | 25.96628 | -97.35133 | 35932 ft | 414 kts | 212° |
| 2026-05-08 02:40 | 25.91653 | -97.38290 | 35933 ft | 408 kts | 222° |
| 2026-05-08 02:40 | 25.87381 | -97.42417 | 35945 ft | 407 kts | 224° |
| 2026-05-08 02:41 | 25.83113 | -97.46556 | 35940 ft | 407 kts | 224° |
| 2026-05-08 02:41 | 25.78704 | -97.50517 | 35936 ft | 412 kts | 215° |
| 2026-05-08 02:42 | 25.74260 | -97.52537 | 35925 ft | 423 kts | 198° |
| 2026-05-08 02:42 | 25.68339 | -97.53272 | 35923 ft | 430 kts | 191° |
| 2026-05-08 02:43 | 25.62381 | -97.53869 | 35923 ft | 430 kts | 191° |
| 2026-05-08 02:43 | 25.56421 | -97.54475 | 35923 ft | 430 kts | 191° |
| 2026-05-08 02:44 | 25.50451 | -97.55074 | 35931 ft | 431 kts | 191° |
| 2026-05-08 02:44 | 25.44474 | -97.55673 | 35924 ft | 431 kts | 191° |
| 2026-05-08 02:45 | 25.38499 | -97.56275 | 35945 ft | 431 kts | 192° |
| 2026-05-08 02:45 | 25.32542 | -97.56889 | 35952 ft | 429 kts | 192° |
| 2026-05-08 02:46 | 25.26610 | -97.57602 | 35954 ft | 428 kts | 193° |
| 2026-05-08 02:46 | 25.20692 | -97.58350 | 35960 ft | 428 kts | 193° |
| 2026-05-08 02:47 | 25.14765 | -97.59077 | 35960 ft | 428 kts | 193° |
| 2026-05-08 02:47 | 25.08837 | -97.59783 | 35934 ft | 429 kts | 193° |
| 2026-05-08 02:48 | 25.02889 | -97.60451 | 35933 ft | 430 kts | 192° |
| 2026-05-08 02:48 | 24.96911 | -97.61009 | 35936 ft | 432 kts | 191° |
| 2026-05-08 02:49 | 24.90925 | -97.61560 | 35942 ft | 432 kts | 191° |
| 2026-05-08 02:49 | 24.84935 | -97.62125 | 35946 ft | 432 kts | 191° |
| 2026-05-08 02:50 | 24.78948 | -97.62695 | 35924 ft | 432 kts | 191° |
| 2026-05-08 02:50 | 24.72941 | -97.63274 | 35927 ft | 434 kts | 191° |
| 2026-05-08 02:51 | 24.66928 | -97.63859 | 35934 ft | 434 kts | 191° |
| 2026-05-08 02:51 | 24.60902 | -97.64442 | 35947 ft | 435 kts | 191° |
| 2026-05-08 02:52 | 24.54872 | -97.65020 | 35949 ft | 435 kts | 191° |
| 2026-05-08 02:52 | 24.48841 | -97.65599 | 35954 ft | 435 kts | 191° |
| 2026-05-08 02:53 | 24.42812 | -97.66172 | 35951 ft | 435 kts | 191° |
| 2026-05-08 02:53 | 24.36742 | -97.66742 | 35953 ft | 435 kts | 191° |
| 2026-05-08 02:54 | 24.30717 | -97.67320 | 35952 ft | 434 kts | 191° |
| 2026-05-08 02:54 | 24.24697 | -97.67904 | 35948 ft | 434 kts | 191° |
| 2026-05-08 02:55 | 24.15659 | -97.68766 | 35918 ft | 435 kts | 191° |
| 2026-05-08 02:56 | 24.09619 | -97.69334 | 35918 ft | 436 kts | 191° |
| 2026-05-08 02:56 | 24.03566 | -97.69908 | 35922 ft | 437 kts | 191° |
| 2026-05-08 02:57 | 23.97504 | -97.70487 | 35928 ft | 438 kts | 191° |
| 2026-05-08 02:57 | 23.91436 | -97.71064 | 35931 ft | 438 kts | 191° |
| 2026-05-08 02:58 | 23.85369 | -97.71644 | 35918 ft | 438 kts | 190° |
| 2026-05-08 02:58 | 23.79290 | -97.72221 | 35919 ft | 439 kts | 190° |
| 2026-05-08 02:59 | 23.73201 | -97.72793 | 35925 ft | 439 kts | 190° |
| 2026-05-08 02:59 | 23.67109 | -97.73365 | 35926 ft | 439 kts | 190° |
| 2026-05-08 03:00 | 23.61015 | -97.73944 | 35931 ft | 440 kts | 190° |
| 2026-05-08 03:00 | 23.54917 | -97.74524 | 35929 ft | 440 kts | 190° |
| 2026-05-08 03:01 | 23.48809 | -97.75095 | 35933 ft | 441 kts | 190° |
| 2026-05-08 03:01 | 23.42690 | -97.75671 | 35932 ft | 441 kts | 190° |
| 2026-05-08 03:02 | 23.36582 | -97.76244 | 35938 ft | 442 kts | 190° |
| 2026-05-08 03:02 | 23.30452 | -97.76821 | 35941 ft | 442 kts | 190° |
| 2026-05-08 03:03 | 23.24322 | -97.77395 | 35938 ft | 442 kts | 190° |
| 2026-05-08 03:03 | 23.18188 | -97.77967 | 35936 ft | 442 kts | 190° |
| 2026-05-08 03:04 | 23.12068 | -97.78546 | 35943 ft | 441 kts | 190° |
| 2026-05-08 03:04 | 23.05992 | -97.79125 | 35943 ft | 440 kts | 190° |
| 2026-05-08 03:05 | 22.99886 | -97.79701 | 35939 ft | 440 kts | 190° |
| 2026-05-08 03:05 | 22.93787 | -97.80270 | 35937 ft | 440 kts | 190° |
| 2026-05-08 03:06 | 22.87694 | -97.80837 | 35920 ft | 440 kts | 190° |
| 2026-05-08 03:06 | 22.81596 | -97.81401 | 35917 ft | 440 kts | 190° |
| 2026-05-08 03:07 | 22.75454 | -97.81974 | 35912 ft | 440 kts | 190° |
| 2026-05-08 03:07 | 22.69350 | -97.82548 | 35914 ft | 440 kts | 190° |
| 2026-05-08 03:08 | 22.63242 | -97.83127 | 35919 ft | 441 kts | 190° |
| 2026-05-08 03:08 | 22.57141 | -97.83696 | 35910 ft | 441 kts | 189° |
| 2026-05-08 03:09 | 22.51026 | -97.84257 | 35913 ft | 441 kts | 189° |
| 2026-05-08 03:09 | 22.44912 | -97.84824 | 35908 ft | 441 kts | 189° |
| 2026-05-08 03:10 | 22.38796 | -97.85390 | 35910 ft | 441 kts | 189° |
| 2026-05-08 03:10 | 22.32672 | -97.85954 | 35911 ft | 441 kts | 189° |
| 2026-05-08 03:11 | 22.26555 | -97.86504 | 35895 ft | 442 kts | 188° |
| 2026-05-08 03:11 | 22.20462 | -97.86889 | 35906 ft | 442 kts | 187° |
| 2026-05-08 03:12 | 22.14307 | -97.87222 | 35914 ft | 442 kts | 187° |
| 2026-05-08 03:12 | 22.08168 | -97.87572 | 35918 ft | 442 kts | 187° |
| 2026-05-08 03:13 | 22.02033 | -97.87950 | 35921 ft | 442 kts | 187° |
| 2026-05-08 03:13 | 21.95879 | -97.88335 | 35921 ft | 442 kts | 187° |
| 2026-05-08 03:14 | 21.89734 | -97.88716 | 35917 ft | 442 kts | 187° |
| 2026-05-08 03:14 | 21.83600 | -97.89088 | 35920 ft | 442 kts | 187° |
| 2026-05-08 03:15 | 21.77462 | -97.89464 | 35920 ft | 442 kts | 187° |
| 2026-05-08 03:15 | 21.71310 | -97.89842 | 35922 ft | 441 kts | 187° |
| 2026-05-08 03:16 | 21.65217 | -97.90218 | 35919 ft | 441 kts | 187° |
| 2026-05-08 03:16 | 21.59086 | -97.90592 | 35911 ft | 441 kts | 187° |
| 2026-05-08 03:17 | 21.52967 | -97.90963 | 35915 ft | 441 kts | 187° |
| 2026-05-08 03:17 | 21.46843 | -97.91333 | 35920 ft | 441 kts | 187° |
| 2026-05-08 03:18 | 21.40803 | -97.92297 | 35919 ft | 438 kts | 193° |
| 2026-05-08 03:18 | 21.34803 | -97.93436 | 35920 ft | 438 kts | 193° |
| 2026-05-08 03:19 | 21.28798 | -97.94580 | 35930 ft | 438 kts | 193° |
| 2026-05-08 03:19 | 21.22802 | -97.95726 | 35929 ft | 438 kts | 193° |
| 2026-05-08 03:20 | 21.16802 | -97.96862 | 35925 ft | 438 kts | 193° |
| 2026-05-08 03:20 | 21.10801 | -97.97991 | 35927 ft | 438 kts | 193° |
| 2026-05-08 03:21 | 21.05816 | -97.98936 | 35933 ft | 438 kts | 193° |
| 2026-05-08 03:21 | 20.98807 | -98.00259 | 35931 ft | 437 kts | 193° |
| 2026-05-08 03:22 | 20.93826 | -98.01198 | 35931 ft | 437 kts | 192° |
| 2026-05-08 03:22 | 20.87835 | -98.02327 | 35937 ft | 437 kts | 192° |
| 2026-05-08 03:23 | 20.81845 | -98.03454 | 35937 ft | 437 kts | 192° |
| 2026-05-08 03:23 | 20.75858 | -98.04582 | 35953 ft | 437 kts | 192° |
| 2026-05-08 03:24 | 20.69885 | -98.05708 | 35951 ft | 436 kts | 192° |
| 2026-05-08 03:24 | 20.63893 | -98.06834 | 35973 ft | 436 kts | 192° |
| 2026-05-08 03:25 | 20.57919 | -98.07954 | 35969 ft | 436 kts | 192° |
| 2026-05-08 03:25 | 20.51949 | -98.09075 | 35994 ft | 436 kts | 192° |
| 2026-05-08 03:26 | 20.45975 | -98.10194 | 35991 ft | 436 kts | 192° |
| 2026-05-08 03:26 | 20.40009 | -98.11318 | 36018 ft | 435 kts | 192° |
| 2026-05-08 03:27 | 20.34038 | -98.12438 | 35718 ft | 435 kts | 192° |
| 2026-05-08 03:27 | 20.31057 | -98.12992 | 35491 ft | 435 kts | 192° |
| 2026-05-08 03:27 | 20.28071 | -98.13547 | 35276 ft | 436 kts | 192° |
| 2026-05-08 03:27 | 20.25080 | -98.14104 | 35043 ft | 437 kts | 192° |
| 2026-05-08 03:28 | 20.22084 | -98.14661 | 34814 ft | 437 kts | 191° |
| 2026-05-08 03:28 | 20.19087 | -98.15221 | 34583 ft | 438 kts | 192° |
| 2026-05-08 03:28 | 20.16071 | -98.15788 | 34009 ft | 440 kts | 191° |
| 2026-05-08 03:28 | 20.13048 | -98.16355 | 33074 ft | 446 kts | 191° |
| 2026-05-08 03:29 | 20.09997 | -98.17030 | 32182 ft | 449 kts | 198° |
| 2026-05-08 03:29 | 20.07112 | -98.18318 | 31282 ft | 452 kts | 210° |
| 2026-05-08 03:29 | 20.04528 | -98.20258 | 30322 ft | 458 kts | 221° |
| 2026-05-08 03:29 | 20.02404 | -98.22807 | 29375 ft | 462 kts | 235° |
| 2026-05-08 03:30 | 19.99943 | -98.29059 | 28852 ft | 463 kts | 255° |
| 2026-05-08 03:30 | 19.98557 | -98.35751 | 28340 ft | 465 kts | 256° |
| 2026-05-08 03:31 | 19.97210 | -98.42459 | 27850 ft | 467 kts | 256° |
| 2026-05-08 03:31 | 19.95854 | -98.49260 | 27352 ft | 468 kts | 256° |
| 2026-05-08 03:32 | 19.95185 | -98.52589 | 27108 ft | 469 kts | 256° |
| 2026-05-08 03:32 | 19.94500 | -98.55960 | 26484 ft | 465 kts | 256° |
| 2026-05-08 03:32 | 19.93811 | -98.59325 | 25597 ft | 465 kts | 256° |
| 2026-05-08 03:32 | 19.93126 | -98.62668 | 25223 ft | 463 kts | 256° |
| 2026-05-08 03:33 | 19.92443 | -98.66016 | 24976 ft | 463 kts | 256° |
| 2026-05-08 03:33 | 19.91758 | -98.69371 | 24765 ft | 464 kts | 256° |
| 2026-05-08 03:33 | 19.91072 | -98.72714 | 24576 ft | 463 kts | 256° |
| 2026-05-08 03:33 | 19.90579 | -98.76099 | 24378 ft | 464 kts | 261° |
| 2026-05-08 03:34 | 19.90205 | -98.79498 | 24177 ft | 463 kts | 261° |
| 2026-05-08 03:34 | 19.89832 | -98.82889 | 23984 ft | 461 kts | 261° |
| 2026-05-08 03:34 | 19.89459 | -98.86278 | 23785 ft | 460 kts | 261° |
| 2026-05-08 03:34 | 19.89132 | -98.89657 | 23059 ft | 460 kts | 265° |
| 2026-05-08 03:35 | 19.89215 | -98.93057 | 22164 ft | 460 kts | 272° |
| 2026-05-08 03:35 | 19.89449 | -98.96436 | 21292 ft | 457 kts | 272° |
| 2026-05-08 03:35 | 19.89679 | -98.99797 | 20422 ft | 455 kts | 272° |
| 2026-05-08 03:35 | 19.89955 | -99.03858 | 19539 ft | 448 kts | 273° |
| 2026-05-08 03:36 | 19.90171 | -99.07087 | 19392 ft | 429 kts | 273° |
| 2026-05-08 03:36 | 19.90309 | -99.09151 | 19311 ft | 417 kts | 273° |
| 2026-05-08 03:36 | 19.90511 | -99.12162 | 19182 ft | 401 kts | 272° |
| 2026-05-08 03:36 | 19.90707 | -99.15093 | 19044 ft | 386 kts | 272° |
| 2026-05-08 03:37 | 19.90616 | -99.17893 | 18282 ft | 387 kts | 258° |
| 2026-05-08 03:37 | 19.89701 | -99.20604 | 17181 ft | 396 kts | 240° |
| 2026-05-08 03:37 | 19.87977 | -99.22875 | 16516 ft | 395 kts | 221° |
| 2026-05-08 03:37 | 19.85729 | -99.24490 | 16011 ft | 389 kts | 205° |
| 2026-05-08 03:38 | 19.83158 | -99.25312 | 15492 ft | 386 kts | 188° |
| 2026-05-08 03:38 | 19.80492 | -99.25332 | 14982 ft | 382 kts | 178° |
| 2026-05-08 03:38 | 19.77850 | -99.25169 | 14467 ft | 379 kts | 177° |
| 2026-05-08 03:38 | 19.75257 | -99.24998 | 14271 ft | 366 kts | 177° |
| 2026-05-08 03:39 | 19.72772 | -99.24827 | 14180 ft | 350 kts | 177° |
| 2026-05-08 03:39 | 19.70380 | -99.24664 | 14051 ft | 338 kts | 177° |
| 2026-05-08 03:39 | 19.68074 | -99.24511 | 13856 ft | 327 kts | 177° |
| 2026-05-08 03:39 | 19.65838 | -99.24366 | 13746 ft | 316 kts | 178° |
| 2026-05-08 03:40 | 19.63684 | -99.24231 | 13651 ft | 306 kts | 177° |
| 2026-05-08 03:40 | 19.61586 | -99.24100 | 13537 ft | 297 kts | 177° |
| 2026-05-08 03:40 | 19.59557 | -99.23972 | 13437 ft | 288 kts | 177° |
| 2026-05-08 03:40 | 19.57586 | -99.23844 | 13336 ft | 279 kts | 177° |
| 2026-05-08 03:41 | 19.55709 | -99.23721 | 13248 ft | 262 kts | 177° |
| 2026-05-08 03:41 | 19.53918 | -99.23605 | 13155 ft | 253 kts | 177° |
| 2026-05-08 03:41 | 19.52215 | -99.23500 | 13053 ft | 245 kts | 178° |
| 2026-05-08 03:41 | 19.50469 | -99.23443 | 12525 ft | 254 kts | 179° |
| 2026-05-08 03:42 | 19.48688 | -99.23417 | 11967 ft | 265 kts | 180° |
| 2026-05-08 03:42 | 19.46832 | -99.23398 | 11408 ft | 267 kts | 179° |
| 2026-05-08 03:42 | 19.44976 | -99.23377 | 10918 ft | 265 kts | 179° |
| 2026-05-08 03:42 | 19.43186 | -99.23356 | 10804 ft | 248 kts | 179° |
| 2026-05-08 03:43 | 19.41535 | -99.23334 | 10755 ft | 230 kts | 178° |
| 2026-05-08 03:43 | 19.40000 | -99.23275 | 10695 ft | 212 kts | 180° |
| 2026-05-08 03:43 | 19.38586 | -99.23574 | 10640 ft | 207 kts | 195° |
| 2026-05-08 03:43 | 19.37111 | -99.23666 | 10598 ft | 220 kts | 162° |
| 2026-05-08 03:44 | 19.35815 | -99.22816 | 10558 ft | 224 kts | 134° |
| 2026-05-08 03:44 | 19.34914 | -99.21447 | 10936 ft | 232 kts | 110° |
| 2026-05-08 03:44 | 19.34665 | -99.19701 | 11288 ft | 250 kts | 83° |
| 2026-05-08 03:44 | 19.35296 | -99.17968 | 11822 ft | 260 kts | 53° |
| 2026-05-08 03:45 | 19.36691 | -99.16685 | 12245 ft | 275 kts | 29° |
| 2026-05-08 03:45 | 19.38478 | -99.15905 | 12462 ft | 280 kts | 11° |
| 2026-05-08 03:45 | 19.40420 | -99.15639 | 12510 ft | 281 kts | 4° |
| 2026-05-08 03:45 | 19.42374 | -99.15473 | 12514 ft | 281 kts | 4° |
| 2026-05-08 03:46 | 19.44349 | -99.15321 | 12511 ft | 281 kts | 4° |
| 2026-05-08 03:46 | 19.46275 | -99.15173 | 12510 ft | 281 kts | 4° |
| 2026-05-08 03:46 | 19.48222 | -99.15026 | 12513 ft | 281 kts | 4° |
| 2026-05-08 03:46 | 19.50173 | -99.14879 | 12503 ft | 281 kts | 4° |
| 2026-05-08 03:47 | 19.52128 | -99.14733 | 12492 ft | 281 kts | 4° |
| 2026-05-08 03:47 | 19.54078 | -99.14587 | 12483 ft | 281 kts | 4° |
| 2026-05-08 03:47 | 19.56025 | -99.14442 | 12469 ft | 281 kts | 4° |
| 2026-05-08 03:47 | 19.57967 | -99.14299 | 12449 ft | 280 kts | 4° |
| 2026-05-08 03:48 | 19.59905 | -99.14162 | 12436 ft | 279 kts | 4° |
| 2026-05-08 03:48 | 19.61847 | -99.14023 | 12420 ft | 279 kts | 4° |
| 2026-05-08 03:48 | 19.63773 | -99.13886 | 12405 ft | 279 kts | 4° |
| 2026-05-08 03:48 | 19.65706 | -99.13750 | 12388 ft | 278 kts | 4° |
| 2026-05-08 03:49 | 19.67640 | -99.13613 | 12369 ft | 278 kts | 4° |
| 2026-05-08 03:49 | 19.69575 | -99.13477 | 12478 ft | 279 kts | 4° |
| 2026-05-08 03:49 | 19.71483 | -99.13148 | 12481 ft | 278 kts | 21° |
| 2026-05-08 03:49 | 19.73124 | -99.12105 | 12493 ft | 277 kts | 45° |
| 2026-05-08 03:50 | 19.74224 | -99.10454 | 12502 ft | 275 kts | 69° |
| 2026-05-08 03:50 | 19.74598 | -99.08494 | 12499 ft | 272 kts | 93° |
| 2026-05-08 03:50 | 19.74209 | -99.06543 | 12505 ft | 271 kts | 117° |
| 2026-05-08 03:50 | 19.73139 | -99.04911 | 12354 ft | 271 kts | 140° |
| 2026-05-08 03:51 | 19.71574 | -99.03874 | 12213 ft | 262 kts | 155° |
| 2026-05-08 03:51 | 19.69970 | -99.03028 | 12163 ft | 253 kts | 155° |
| 2026-05-08 03:51 | 19.68413 | -99.02199 | 11903 ft | 249 kts | 154° |
| 2026-05-08 03:51 | 19.66874 | -99.01377 | 11674 ft | 247 kts | 154° |
| 2026-05-08 03:52 | 19.65351 | -99.00561 | 11549 ft | 245 kts | 154° |
| 2026-05-08 03:52 | 19.63846 | -98.99755 | 11444 ft | 246 kts | 154° |
| 2026-05-08 03:52 | 19.62320 | -98.98935 | 11338 ft | 245 kts | 154° |
| 2026-05-08 03:52 | 19.60797 | -98.98120 | 11234 ft | 245 kts | 154° |
| 2026-05-08 03:53 | 19.59277 | -98.97307 | 11124 ft | 244 kts | 154° |
| 2026-05-08 03:53 | 19.57760 | -98.96497 | 11015 ft | 244 kts | 154° |
| 2026-05-08 03:53 | 19.56240 | -98.95690 | 10787 ft | 244 kts | 154° |
| 2026-05-08 03:53 | 19.54684 | -98.94961 | 10494 ft | 246 kts | 165° |
| 2026-05-08 03:54 | 19.52994 | -98.94752 | 10165 ft | 247 kts | 184° |
| 2026-05-08 03:54 | 19.51318 | -98.95164 | 9802 ft | 249 kts | 203° |
| 2026-05-08 03:54 | 19.49855 | -98.96174 | 9469 ft | 256 kts | 224° |
| 2026-05-08 03:54 | 19.48782 | -98.97708 | 9097 ft | 262 kts | 240° |
| 2026-05-08 03:55 | 19.47873 | -98.99344 | 8998 ft | 252 kts | 240° |
| 2026-05-08 03:55 | 19.46999 | -99.00938 | 8589 ft | 253 kts | 242° |
| 2026-05-08 03:55 | 19.46122 | -99.02514 | 8220 ft | 242 kts | 240° |
| 2026-05-08 03:55 | 19.45291 | -99.04029 | 8850 ft | 244 kts | 241° |
| 2026-05-08 03:56 | 19.44398 | -99.05640 | 9472 ft | 262 kts | 240° |
| 2026-05-08 03:56 | 19.43462 | -99.07328 | 10152 ft | 265 kts | 238° |
| 2026-05-08 03:56 | 19.42520 | -99.08995 | 11077 ft | 262 kts | 238° |
| 2026-05-08 03:56 | 19.41572 | -99.10655 | 11722 ft | 266 kts | 237° |
| 2026-05-08 03:57 | 19.40615 | -99.12334 | 11938 ft | 266 kts | 238° |
| 2026-05-08 03:57 | 19.39652 | -99.14006 | 12003 ft | 265 kts | 233° |
| 2026-05-08 03:57 | 19.38322 | -99.15316 | 12007 ft | 262 kts | 207° |
| 2026-05-08 03:57 | 19.36597 | -99.15865 | 11995 ft | 261 kts | 182° |
| 2026-05-08 03:58 | 19.34819 | -99.15573 | 11981 ft | 259 kts | 158° |
| 2026-05-08 03:58 | 19.33367 | -99.14549 | 11984 ft | 247 kts | 134° |
| 2026-05-08 03:58 | 19.32460 | -99.13038 | 11982 ft | 245 kts | 111° |
| 2026-05-08 03:58 | 19.32200 | -99.11261 | 11980 ft | 247 kts | 86° |
| 2026-05-08 03:59 | 19.32644 | -99.09504 | 11994 ft | 250 kts | 65° |
| 2026-05-08 03:59 | 19.33402 | -99.07840 | 11997 ft | 252 kts | 65° |
| 2026-05-08 03:59 | 19.34168 | -99.06160 | 12011 ft | 254 kts | 65° |
| 2026-05-08 03:59 | 19.34936 | -99.04475 | 12009 ft | 254 kts | 65° |
| 2026-05-08 04:00 | 19.35701 | -99.02793 | 12005 ft | 253 kts | 66° |
| 2026-05-08 04:00 | 19.36466 | -99.01099 | 12005 ft | 260 kts | 66° |
| 2026-05-08 04:00 | 19.37258 | -98.99346 | 11999 ft | 265 kts | 66° |
| 2026-05-08 04:00 | 19.38050 | -98.97589 | 11995 ft | 266 kts | 66° |
| 2026-05-08 04:01 | 19.38952 | -98.95905 | 11987 ft | 268 kts | 50° |
| 2026-05-08 04:01 | 19.40289 | -98.94539 | 11980 ft | 265 kts | 42° |
| 2026-05-08 04:01 | 19.41637 | -98.93261 | 11901 ft | 256 kts | 42° |
| 2026-05-08 04:01 | 19.42992 | -98.92084 | 11769 ft | 249 kts | 32° |
| 2026-05-08 04:02 | 19.44530 | -98.91319 | 11593 ft | 241 kts | 15° |
| 2026-05-08 04:02 | 19.46137 | -98.91028 | 11368 ft | 231 kts | 360° |
| 2026-05-08 04:02 | 19.47681 | -98.91190 | 11274 ft | 216 kts | 341° |
| 2026-05-08 04:02 | 19.48945 | -98.91919 | 11134 ft | 201 kts | 314° |
| 2026-05-08 04:03 | 19.49768 | -98.93067 | 10838 ft | 194 kts | 291° |
| 2026-05-08 04:03 | 19.49834 | -98.95786 | 10149 ft | 186 kts | 244° |
| 2026-05-08 04:03 | 19.49205 | -98.96977 | 9716 ft | 185 kts | 237° |
| 2026-05-08 04:04 | 19.48549 | -98.98146 | 9327 ft | 187 kts | 240° |
| 2026-05-08 04:04 | 19.47878 | -98.99344 | 8938 ft | 191 kts | 240° |
| 2026-05-08 04:04 | 19.47195 | -99.00564 | 8595 ft | 194 kts | 240° |
| 2026-05-08 04:04 | 19.46504 | -99.01797 | 8220 ft | 197 kts | 239° |
| 2026-05-08 04:05 | 19.45806 | -99.03046 | 7939 ft | 195 kts | 241° |
| 2026-05-08 04:05 | 19.45119 | -99.04274 | 7614 ft | 194 kts | 241° |
| 2026-05-08 04:05 | 19.44426 | -99.05492 | 7349 ft | 191 kts | 242° |
| 2026-05-08 04:05 | 19.43831 | -99.06576 | 7303 ft | 143 kts | 239° |
| 2026-05-08 04:06 | 19.43413 | -99.07317 | 7303 ft | 93 kts | 238° |
| 2026-05-08 04:06 | 19.43170 | -99.07747 | 7305 ft | 43 kts | 239° |
| 2026-05-08 04:06 | 19.43048 | -99.07967 | 7304 ft | 31 kts | 237° |
| 2026-05-08 04:06 | 19.43014 | -99.08143 | 7303 ft | 21 kts | 271° |
| 2026-05-08 04:07 | 19.43019 | -99.08272 | 7303 ft | 16 kts | 271° |
| 2026-05-08 04:07 | 19.43022 | -99.08375 | 7303 ft | 10 kts | 271° |
| 2026-05-08 04:07 | 19.43023 | -99.08395 | 7303 ft | 0 kts | 273° |
| 2026-05-08 04:07 | 19.43023 | -99.08404 | 7303 ft | 3 kts | 273° |
| 2026-05-08 04:08 | 19.43025 | -99.08439 | 7303 ft | 7 kts | 272° |
| 2026-05-08 04:08 | 19.43026 | -99.08506 | 7303 ft | 11 kts | 270° |
| 2026-05-08 04:08 | 19.43046 | -99.08586 | 7302 ft | 13 kts | 315° |
| 2026-05-08 04:08 | 19.43094 | -99.08618 | 7303 ft | 6 kts | 331° |
| 2026-05-08 04:09 | 19.43095 | -99.08619 | 7303 ft | 0 kts | 331° |
| 2026-05-08 04:11 | 19.43105 | -99.08623 | 7303 ft | 3 kts | 343° |
| 2026-05-08 04:11 | 19.43127 | -99.08615 | 7303 ft | 5 kts | 35° |
| 2026-05-08 04:11 | 19.43157 | -99.08577 | 7303 ft | 8 kts | 52° |
| 2026-05-08 04:11 | 19.43189 | -99.08526 | 7303 ft | 9 kts | 62° |
| 2026-05-08 04:12 | 19.43218 | -99.08467 | 7303 ft | 8 kts | 60° |
| 2026-05-08 04:12 | 19.43247 | -99.08415 | 7303 ft | 8 kts | 60° |
| 2026-05-08 04:12 | 19.43267 | -99.08379 | 7303 ft | 0 kts | 59° |
| 2026-05-08 04:12 | 19.43269 | -99.08375 | 7303 ft | 1 kts | 59° |
| 2026-05-08 04:13 | 19.43274 | -99.08366 | 7303 ft | 0 kts | 59° |
| 2026-05-08 04:13 | 19.43278 | -99.08360 | 7303 ft | 0 kts | 59° |
| 2026-05-08 04:14 | 19.43291 | -99.08336 | 7303 ft | 8 kts | 59° |
| 2026-05-08 04:14 | 19.43331 | -99.08266 | 7303 ft | 14 kts | 59° |
| 2026-05-08 04:15 | 19.43390 | -99.08161 | 7303 ft | 18 kts | 58° |
| 2026-05-08 04:15 | 19.43454 | -99.08045 | 7303 ft | 19 kts | 57° |
| 2026-05-08 04:15 | 19.43509 | -99.07948 | 7303 ft | 7 kts | 61° |
| 2026-05-08 04:15 | 19.43536 | -99.07903 | 7303 ft | 7 kts | 39° |
| 2026-05-08 04:16 | 19.43583 | -99.07914 | 7303 ft | 8 kts | 327° |
| 2026-05-08 04:16 | 19.43613 | -99.07932 | 7303 ft | 3 kts | 331° |
| 2026-05-08 04:16 | 19.43619 | -99.07936 | 7303 ft | 0 kts | 331° |